sensor_id;sensor_type;location;lat;lon;timestamp;temperature;humidity
40323;DHT22;26030;51.164;17.100;2023-03-12T00:03:13;22.70;58.20
40323;DHT22;26030;51.164;17.100;2023-03-12T00:08:18;22.60;58.50
40323;DHT22;26030;51.164;17.100;2023-03-12T00:13:22;22.50;58.70
40323;DHT22;26030;51.164;17.100;2023-03-12T00:18:26;22.50;58.40
40323;DHT22;26030;51.164;17.100;2023-03-12T00:23:30;22.50;58.50
40323;DHT22;26030;51.164;17.100;2023-03-12T00:28:34;22.50;58.50
40323;DHT22;26030;51.164;17.100;2023-03-12T00:33:39;22.60;57.80
40323;DHT22;26030;51.164;17.100;2023-03-12T00:38:43;22.40;58.30
40323;DHT22;26030;51.164;17.100;2023-03-12T00:43:48;22.20;59.30
40323;DHT22;26030;51.164;17.100;2023-03-12T00:48:53;22.10;59.50
40323;DHT22;26030;51.164;17.100;2023-03-12T00:53:58;22.10;60.10
40323;DHT22;26030;51.164;17.100;2023-03-12T00:59:02;22.30;60.10
40323;DHT22;26030;51.164;17.100;2023-03-12T01:04:06;22.20;60.00
40323;DHT22;26030;51.164;17.100;2023-03-12T01:09:10;22.20;60.10
40323;DHT22;26030;51.164;17.100;2023-03-12T01:14:14;22.20;60.10
40323;DHT22;26030;51.164;17.100;2023-03-12T01:19:19;22.10;60.10
40323;DHT22;26030;51.164;17.100;2023-03-12T01:24:23;22.00;60.30
40323;DHT22;26030;51.164;17.100;2023-03-12T01:29:27;22.00;60.30
40323;DHT22;26030;51.164;17.100;2023-03-12T01:34:32;21.90;60.20
40323;DHT22;26030;51.164;17.100;2023-03-12T01:39:38;22.00;60.40
40323;DHT22;26030;51.164;17.100;2023-03-12T01:44:49;21.90;60.00
40323;DHT22;26030;51.164;17.100;2023-03-12T01:50:05;21.80;60.10
40323;DHT22;26030;51.164;17.100;2023-03-12T01:55:12;21.90;59.60
40323;DHT22;26030;51.164;17.100;2023-03-12T02:00:21;22.00;59.10
40323;DHT22;26030;51.164;17.100;2023-03-12T02:10:40;22.00;58.50
40323;DHT22;26030;51.164;17.100;2023-03-12T02:15:44;21.90;58.50
40323;DHT22;26030;51.164;17.100;2023-03-12T02:26:05;21.60;59.30
40323;DHT22;26030;51.164;17.100;2023-03-12T02:31:12;21.50;59.10
40323;DHT22;26030;51.164;17.100;2023-03-12T02:36:19;21.50;60.10
40323;DHT22;26030;51.164;17.100;2023-03-12T02:41:27;21.90;59.30
40323;DHT22;26030;51.164;17.100;2023-03-12T02:46:35;22.20;58.90
40323;DHT22;26030;51.164;17.100;2023-03-12T02:51:43;22.40;57.80
40323;DHT22;26030;51.164;17.100;2023-03-12T02:56:48;22.60;57.40
40323;DHT22;26030;51.164;17.100;2023-03-12T03:01:54;22.80;56.60
40323;DHT22;26030;51.164;17.100;2023-03-12T03:07:00;23.00;55.80
40323;DHT22;26030;51.164;17.100;2023-03-12T03:12:04;22.90;55.90
40323;DHT22;26030;51.164;17.100;2023-03-12T03:17:09;23.00;55.90
40323;DHT22;26030;51.164;17.100;2023-03-12T03:22:14;23.00;55.70
40323;DHT22;26030;51.164;17.100;2023-03-12T03:27:18;23.10;55.60
40323;DHT22;26030;51.164;17.100;2023-03-12T03:32:22;23.00;55.10
40323;DHT22;26030;51.164;17.100;2023-03-12T03:37:26;23.00;55.10
40323;DHT22;26030;51.164;17.100;2023-03-12T03:42:31;23.10;55.40
40323;DHT22;26030;51.164;17.100;2023-03-12T03:47:36;23.00;55.00
40323;DHT22;26030;51.164;17.100;2023-03-12T03:52:40;23.00;55.00
40323;DHT22;26030;51.164;17.100;2023-03-12T03:57:45;23.00;54.80
40323;DHT22;26030;51.164;17.100;2023-03-12T04:02:49;23.00;54.20
40323;DHT22;26030;51.164;17.100;2023-03-12T04:07:54;23.10;54.70
40323;DHT22;26030;51.164;17.100;2023-03-12T04:13:00;23.00;54.60
40323;DHT22;26030;51.164;17.100;2023-03-12T04:18:05;23.10;54.50
40323;DHT22;26030;51.164;17.100;2023-03-12T04:23:09;23.20;54.80
40323;DHT22;26030;51.164;17.100;2023-03-12T04:28:14;23.20;55.10
40323;DHT22;26030;51.164;17.100;2023-03-12T04:33:18;23.30;54.30
40323;DHT22;26030;51.164;17.100;2023-03-12T04:38:23;23.20;54.20
40323;DHT22;26030;51.164;17.100;2023-03-12T04:43:29;23.20;54.10
40323;DHT22;26030;51.164;17.100;2023-03-12T04:48:34;23.20;54.00
40323;DHT22;26030;51.164;17.100;2023-03-12T04:53:39;23.20;53.90
40323;DHT22;26030;51.164;17.100;2023-03-12T04:58:44;23.10;54.00
40323;DHT22;26030;51.164;17.100;2023-03-12T05:03:49;23.00;54.10
40323;DHT22;26030;51.164;17.100;2023-03-12T05:08:54;23.10;54.30
40323;DHT22;26030;51.164;17.100;2023-03-12T05:13:58;23.00;54.10
40323;DHT22;26030;51.164;17.100;2023-03-12T05:19:03;22.80;54.30
40323;DHT22;26030;51.164;17.100;2023-03-12T05:24:08;22.70;54.50
40323;DHT22;26030;51.164;17.100;2023-03-12T05:29:14;22.60;54.60
40323;DHT22;26030;51.164;17.100;2023-03-12T05:34:20;22.50;54.70
40323;DHT22;26030;51.164;17.100;2023-03-12T05:39:24;22.40;54.90
40323;DHT22;26030;51.164;17.100;2023-03-12T05:44:32;22.40;55.00
40323;DHT22;26030;51.164;17.100;2023-03-12T05:49:38;22.30;55.50
40323;DHT22;26030;51.164;17.100;2023-03-12T05:54:42;22.30;55.30
40323;DHT22;26030;51.164;17.100;2023-03-12T05:59:47;22.20;55.30
40323;DHT22;26030;51.164;17.100;2023-03-12T06:04:51;22.10;55.20
40323;DHT22;26030;51.164;17.100;2023-03-12T06:09:56;22.00;55.20
40323;DHT22;26030;51.164;17.100;2023-03-12T06:15:00;22.00;55.40
40323;DHT22;26030;51.164;17.100;2023-03-12T06:20:04;22.00;55.50
40323;DHT22;26030;51.164;17.100;2023-03-12T06:25:09;21.90;55.40
40323;DHT22;26030;51.164;17.100;2023-03-12T06:30:15;21.90;55.40
40323;DHT22;26030;51.164;17.100;2023-03-12T06:35:19;21.80;55.70
40323;DHT22;26030;51.164;17.100;2023-03-12T06:40:23;21.80;55.50
40323;DHT22;26030;51.164;17.100;2023-03-12T06:45:27;22.00;55.80
40323;DHT22;26030;51.164;17.100;2023-03-12T06:50:31;22.30;55.00
40323;DHT22;26030;51.164;17.100;2023-03-12T06:55:36;22.60;54.40
40323;DHT22;26030;51.164;17.100;2023-03-12T07:00:40;22.90;54.10
40323;DHT22;26030;51.164;17.100;2023-03-12T07:05:45;23.00;53.50
40323;DHT22;26030;51.164;17.100;2023-03-12T07:10:50;23.00;53.10
40323;DHT22;26030;51.164;17.100;2023-03-12T07:15:54;23.10;53.00
40323;DHT22;26030;51.164;17.100;2023-03-12T07:20:58;23.20;52.90
40323;DHT22;26030;51.164;17.100;2023-03-12T07:26:03;23.20;52.80
40323;DHT22;26030;51.164;17.100;2023-03-12T07:31:08;23.30;52.60
40323;DHT22;26030;51.164;17.100;2023-03-12T07:36:12;23.30;52.60
40323;DHT22;26030;51.164;17.100;2023-03-12T07:41:17;23.30;52.50
40323;DHT22;26030;51.164;17.100;2023-03-12T07:46:21;23.40;52.40
40323;DHT22;26030;51.164;17.100;2023-03-12T07:51:25;23.30;52.60
40323;DHT22;26030;51.164;17.100;2023-03-12T07:56:29;23.30;52.00
40323;DHT22;26030;51.164;17.100;2023-03-12T08:01:35;23.30;52.40
40323;DHT22;26030;51.164;17.100;2023-03-12T08:06:40;23.30;52.40
40323;DHT22;26030;51.164;17.100;2023-03-12T08:11:45;23.40;52.40
40323;DHT22;26030;51.164;17.100;2023-03-12T08:16:49;23.50;52.50
40323;DHT22;26030;51.164;17.100;2023-03-12T08:21:53;23.50;52.70
40323;DHT22;26030;51.164;17.100;2023-03-12T08:26:57;23.50;52.60
40323;DHT22;26030;51.164;17.100;2023-03-12T08:32:01;23.40;52.90
40323;DHT22;26030;51.164;17.100;2023-03-12T08:37:07;23.40;53.00
40323;DHT22;26030;51.164;17.100;2023-03-12T08:42:11;23.30;52.90
40323;DHT22;26030;51.164;17.100;2023-03-12T08:47:15;23.30;53.00
40323;DHT22;26030;51.164;17.100;2023-03-12T08:52:19;23.30;53.00
40323;DHT22;26030;51.164;17.100;2023-03-12T08:57:24;23.30;52.90
40323;DHT22;26030;51.164;17.100;2023-03-12T09:02:28;23.20;53.40
40323;DHT22;26030;51.164;17.100;2023-03-12T09:07:32;23.10;53.10
40323;DHT22;26030;51.164;17.100;2023-03-12T09:12:36;23.00;53.20
40323;DHT22;26030;51.164;17.100;2023-03-12T09:17:40;22.90;53.60
40323;DHT22;26030;51.164;17.100;2023-03-12T09:22:44;22.90;53.60
40323;DHT22;26030;51.164;17.100;2023-03-12T09:27:49;23.00;54.10
40323;DHT22;26030;51.164;17.100;2023-03-12T09:32:53;22.90;54.30
40323;DHT22;26030;51.164;17.100;2023-03-12T09:37:57;22.80;54.40
40323;DHT22;26030;51.164;17.100;2023-03-12T09:48:40;22.80;54.70
40323;DHT22;26030;51.164;17.100;2023-03-12T09:53:50;22.80;54.70
40323;DHT22;26030;51.164;17.100;2023-03-12T09:58:56;22.70;54.90
40323;DHT22;26030;51.164;17.100;2023-03-12T10:10:02;22.60;55.40
40323;DHT22;26030;51.164;17.100;2023-03-12T10:20:52;22.70;55.00
40323;DHT22;26030;51.164;17.100;2023-03-12T10:31:33;22.80;54.90
40323;DHT22;26030;51.164;17.100;2023-03-12T10:36:41;22.70;55.20
40323;DHT22;26030;51.164;17.100;2023-03-12T10:41:46;22.80;55.10
40323;DHT22;26030;51.164;17.100;2023-03-12T10:46:59;22.80;54.90
40323;DHT22;26030;51.164;17.100;2023-03-12T10:52:24;22.90;55.30
40323;DHT22;26030;51.164;17.100;2023-03-12T10:57:37;22.80;55.10
40323;DHT22;26030;51.164;17.100;2023-03-12T11:02:43;22.70;54.90
40323;DHT22;26030;51.164;17.100;2023-03-12T11:07:51;22.70;55.10
40323;DHT22;26030;51.164;17.100;2023-03-12T11:12:56;22.80;55.20
40323;DHT22;26030;51.164;17.100;2023-03-12T11:19:04;22.70;55.40
40323;DHT22;26030;51.164;17.100;2023-03-12T11:23:45;22.70;55.40
40323;DHT22;26030;51.164;17.100;2023-03-12T11:29:18;22.70;55.30
40323;DHT22;26030;51.164;17.100;2023-03-12T11:34:33;22.60;55.50
40323;DHT22;26030;51.164;17.100;2023-03-12T11:50:43;22.50;56.90
40323;DHT22;26030;51.164;17.100;2023-03-12T12:06:49;22.50;56.20
40323;DHT22;26030;51.164;17.100;2023-03-12T12:12:17;22.50;56.00
40323;DHT22;26030;51.164;17.100;2023-03-12T12:17:28;22.40;55.80
40323;DHT22;26030;51.164;17.100;2023-03-12T12:38:54;22.30;55.30
40323;DHT22;26030;51.164;17.100;2023-03-12T12:44:10;22.30;54.90
40323;DHT22;26030;51.164;17.100;2023-03-12T12:49:20;22.20;55.00
40323;DHT22;26030;51.164;17.100;2023-03-12T12:54:36;22.20;54.90
40323;DHT22;26030;51.164;17.100;2023-03-12T13:05:26;22.20;54.70
40323;DHT22;26030;51.164;17.100;2023-03-12T13:15:37;22.20;54.70
40323;DHT22;26030;51.164;17.100;2023-03-12T13:36:27;22.00;54.40
40323;DHT22;26030;51.164;17.100;2023-03-12T13:46:40;22.00;54.00
40323;DHT22;26030;51.164;17.100;2023-03-12T13:57:10;22.00;53.70
40323;DHT22;26030;51.164;17.100;2023-03-12T14:02:36;22.20;54.00
40323;DHT22;26030;51.164;17.100;2023-03-12T14:13:25;22.00;53.40
40323;DHT22;26030;51.164;17.100;2023-03-12T14:18:33;22.00;53.40
40323;DHT22;26030;51.164;17.100;2023-03-12T14:23:52;22.00;53.30
40323;DHT22;26030;51.164;17.100;2023-03-12T14:34:21;21.90;53.20
40323;DHT22;26030;51.164;17.100;2023-03-12T14:44:39;21.80;53.10
40323;DHT22;26030;51.164;17.100;2023-03-12T14:49:58;21.80;53.10
40323;DHT22;26030;51.164;17.100;2023-03-12T14:55:07;21.80;53.10
40323;DHT22;26030;51.164;17.100;2023-03-12T15:00:24;21.80;53.70
40323;DHT22;26030;51.164;17.100;2023-03-12T15:05:30;21.80;53.30
40323;DHT22;26030;51.164;17.100;2023-03-12T15:10:37;22.10;52.40
40323;DHT22;26030;51.164;17.100;2023-03-12T15:15:46;22.40;51.70
40323;DHT22;26030;51.164;17.100;2023-03-12T15:20:54;22.60;51.20
40323;DHT22;26030;51.164;17.100;2023-03-12T15:31:40;22.90;50.70
40323;DHT22;26030;51.164;17.100;2023-03-12T15:36:47;23.00;50.50
40323;DHT22;26030;51.164;17.100;2023-03-12T15:41:54;23.10;50.20
40323;DHT22;26030;51.164;17.100;2023-03-12T15:47:05;23.10;49.60
40323;DHT22;26030;51.164;17.100;2023-03-12T15:57:24;23.10;49.90
40323;DHT22;26030;51.164;17.100;2023-03-12T16:02:34;23.20;49.80
40323;DHT22;26030;51.164;17.100;2023-03-12T16:07:41;23.20;49.70
40323;DHT22;26030;51.164;17.100;2023-03-12T16:12:46;23.30;49.50
40323;DHT22;26030;51.164;17.100;2023-03-12T16:17:54;23.40;49.30
40323;DHT22;26030;51.164;17.100;2023-03-12T16:23:02;23.30;49.20
40323;DHT22;26030;51.164;17.100;2023-03-12T16:28:09;23.30;49.60
40323;DHT22;26030;51.164;17.100;2023-03-12T16:33:18;23.40;48.80
40323;DHT22;26030;51.164;17.100;2023-03-12T16:38:25;23.40;48.90
40323;DHT22;26030;51.164;17.100;2023-03-12T16:43:31;23.40;48.80
40323;DHT22;26030;51.164;17.100;2023-03-12T16:48:40;23.30;48.80
40323;DHT22;26030;51.164;17.100;2023-03-12T16:53:46;23.40;48.70
40323;DHT22;26030;51.164;17.100;2023-03-12T16:59:32;23.40;49.00
40323;DHT22;26030;51.164;17.100;2023-03-12T17:04:41;23.40;48.50
40323;DHT22;26030;51.164;17.100;2023-03-12T17:09:46;23.40;48.40
40323;DHT22;26030;51.164;17.100;2023-03-12T17:14:51;23.40;48.50
40323;DHT22;26030;51.164;17.100;2023-03-12T17:19:58;23.40;48.40
40323;DHT22;26030;51.164;17.100;2023-03-12T17:25:05;23.30;48.30
40323;DHT22;26030;51.164;17.100;2023-03-12T17:30:14;23.30;48.40
40323;DHT22;26030;51.164;17.100;2023-03-12T17:35:20;23.00;48.70
40323;DHT22;26030;51.164;17.100;2023-03-12T17:40:28;23.00;49.00
40323;DHT22;26030;51.164;17.100;2023-03-12T17:45:35;22.80;49.40
40323;DHT22;26030;51.164;17.100;2023-03-12T17:50:41;22.80;49.30
40323;DHT22;26030;51.164;17.100;2023-03-12T17:55:50;22.60;49.30
40323;DHT22;26030;51.164;17.100;2023-03-12T18:00:59;22.60;49.40
40323;DHT22;26030;51.164;17.100;2023-03-12T18:06:11;22.60;49.30
40323;DHT22;26030;51.164;17.100;2023-03-12T18:11:18;22.50;49.30
40323;DHT22;26030;51.164;17.100;2023-03-12T18:16:24;22.40;49.40
40323;DHT22;26030;51.164;17.100;2023-03-12T18:21:30;22.40;49.50
40323;DHT22;26030;51.164;17.100;2023-03-12T18:26:35;22.30;49.50
40323;DHT22;26030;51.164;17.100;2023-03-12T18:31:41;22.30;49.90
40323;DHT22;26030;51.164;17.100;2023-03-12T18:36:48;22.20;49.90
40323;DHT22;26030;51.164;17.100;2023-03-12T18:41:55;22.10;49.50
40323;DHT22;26030;51.164;17.100;2023-03-12T18:47:02;22.10;49.50
40323;DHT22;26030;51.164;17.100;2023-03-12T18:52:10;22.00;49.60
40323;DHT22;26030;51.164;17.100;2023-03-12T18:57:17;21.90;49.00
40323;DHT22;26030;51.164;17.100;2023-03-12T19:02:23;22.00;49.80
40323;DHT22;26030;51.164;17.100;2023-03-12T19:07:31;22.00;49.50
40323;DHT22;26030;51.164;17.100;2023-03-12T19:12:41;22.00;49.50
40323;DHT22;26030;51.164;17.100;2023-03-12T19:17:58;22.10;49.60
40323;DHT22;26030;51.164;17.100;2023-03-12T19:23:04;22.10;49.60
40323;DHT22;26030;51.164;17.100;2023-03-12T19:28:11;22.10;50.30
40323;DHT22;26030;51.164;17.100;2023-03-12T19:33:19;22.00;50.90
40323;DHT22;26030;51.164;17.100;2023-03-12T19:38:27;21.90;51.90
40323;DHT22;26030;51.164;17.100;2023-03-12T19:43:35;22.10;51.50
40323;DHT22;26030;51.164;17.100;2023-03-12T19:48:44;22.00;51.70
40323;DHT22;26030;51.164;17.100;2023-03-12T19:53:52;22.10;52.30
40323;DHT22;26030;51.164;17.100;2023-03-12T19:59:01;22.10;51.80
40323;DHT22;26030;51.164;17.100;2023-03-12T20:04:08;22.10;51.40
40323;DHT22;26030;51.164;17.100;2023-03-12T20:09:17;21.90;51.80
40323;DHT22;26030;51.164;17.100;2023-03-12T20:14:24;21.90;51.40
40323;DHT22;26030;51.164;17.100;2023-03-12T20:19:30;21.80;51.70
40323;DHT22;26030;51.164;17.100;2023-03-12T20:24:40;21.80;51.50
40323;DHT22;26030;51.164;17.100;2023-03-12T20:29:55;21.80;52.00
40323;DHT22;26030;51.164;17.100;2023-03-12T20:35:01;21.80;52.10
40323;DHT22;26030;51.164;17.100;2023-03-12T20:40:10;22.20;52.10
40323;DHT22;26030;51.164;17.100;2023-03-12T20:45:19;22.60;51.60
40323;DHT22;26030;51.164;17.100;2023-03-12T20:50:26;22.80;50.90
40323;DHT22;26030;51.164;17.100;2023-03-12T20:55:33;22.90;50.80
40323;DHT22;26030;51.164;17.100;2023-03-12T21:00:44;23.00;51.20
40323;DHT22;26030;51.164;17.100;2023-03-12T21:05:54;23.10;50.30
40323;DHT22;26030;51.164;17.100;2023-03-12T21:11:06;23.20;49.60
40323;DHT22;26030;51.164;17.100;2023-03-12T21:16:12;23.20;49.70
40323;DHT22;26030;51.164;17.100;2023-03-12T21:21:20;23.20;49.60
40323;DHT22;26030;51.164;17.100;2023-03-12T21:26:24;23.20;49.40
40323;DHT22;26030;51.164;17.100;2023-03-12T21:31:29;23.20;49.50
40323;DHT22;26030;51.164;17.100;2023-03-12T21:36:34;23.40;51.30
40323;DHT22;26030;51.164;17.100;2023-03-12T21:47:24;23.40;51.00
40323;DHT22;26030;51.164;17.100;2023-03-12T21:52:28;23.30;51.40
40323;DHT22;26030;51.164;17.100;2023-03-12T21:57:33;23.20;51.50
40323;DHT22;26030;51.164;17.100;2023-03-12T22:02:38;23.00;52.20
40323;DHT22;26030;51.164;17.100;2023-03-12T22:07:46;22.90;51.90
40323;DHT22;26030;51.164;17.100;2023-03-12T22:12:50;22.90;52.90
40323;DHT22;26030;51.164;17.100;2023-03-12T22:17:54;22.80;52.30
40323;DHT22;26030;51.164;17.100;2023-03-12T22:22:59;22.70;52.50
40323;DHT22;26030;51.164;17.100;2023-03-12T22:28:03;22.60;52.30
40323;DHT22;26030;51.164;17.100;2023-03-12T22:33:07;22.60;52.10
40323;DHT22;26030;51.164;17.100;2023-03-12T22:38:11;22.50;52.20
40323;DHT22;26030;51.164;17.100;2023-03-12T22:43:15;22.40;52.20
40323;DHT22;26030;51.164;17.100;2023-03-12T22:48:19;22.30;52.10
40323;DHT22;26030;51.164;17.100;2023-03-12T22:53:23;22.30;52.40
40323;DHT22;26030;51.164;17.100;2023-03-12T22:58:28;22.20;52.90
40323;DHT22;26030;51.164;17.100;2023-03-12T23:03:33;22.20;52.30
40323;DHT22;26030;51.164;17.100;2023-03-12T23:08:40;22.10;52.00
40323;DHT22;26030;51.164;17.100;2023-03-12T23:13:45;22.10;52.70
40323;DHT22;26030;51.164;17.100;2023-03-12T23:18:51;22.10;52.50
40323;DHT22;26030;51.164;17.100;2023-03-12T23:45:20;22.00;52.30
40323;DHT22;26030;51.164;17.100;2023-03-12T23:50:24;22.00;53.30
40323;DHT22;26030;51.164;17.100;2023-03-12T23:55:28;22.00;53.30
